Home > Products > Valid Products > TAF

000
FTUS46 KHNX 230520
TAFMCE
TAF
KMCE 230520Z 2306/2406 29005KT P6SM SKC=



000
FTUS46 KHNX 230520
TAFFAT
TAF
KFAT 230520Z 2306/2406 32009KT P6SM SKC=



000
FTUS46 KHNX 230520
TAFBFL
TAF
KBFL 230520Z 2306/2406 33011KT P6SM SKC=



000
FTUS46 KHNX 222320
TAFMCE
TAF
KMCE 222320Z 2300/2324 28007KT P6SM SKC=



000
FTUS46 KHNX 222320
TAFBFL
TAF
KBFL 222320Z 2300/2324 32010KT P6SM SKC
     FM230300 VRB04KT P6SM SKC=



000
FTUS46 KHNX 222320
TAFFAT
TAF
KFAT 222320Z 2300/2324 VRB05KT P6SM SKC=



000
FTUS46 KHNX 221827 AAA
TAFBFL
TAF AMD
KBFL 221827Z 2218/2318 VRB04KT P6SM SKC
     FM222000 30011KT P6SM SKC
     FM230300 34008KT P6SM SKC
     FM230900 VRB03KT P6SM SKC=



000
FTUS46 KHNX 221826 AAA
TAFFAT
TAF AMD
KFAT 221826Z 2218/2318 19004KT P6SM SKC
     FM222300 31007KT P6SM SKC
     FM231000 VRB03KT P6SM SKC=



000
FTUS46 KHNX 221824 AAA
TAFMCE
TAF AMD
KMCE 221824Z 2218/2318 VRB03KT P6SM SKC
     FM222000 32007KT P6SM SKC
     FM230700 VRB03KT P6SM SKC=



000
FTUS46 KHNX 221129
TAFBFL
TAF
KBFL 221129Z 2212/2312 VRB03KT P6SM SKC
     FM222000 30011KT P6SM SKC
     FM230300 34008KT P6SM SKC
     FM230900 VRB03KT P6SM SKC=



000
FTUS46 KHNX 221129
TAFMCE
TAF
KMCE 221129Z 2212/2312 VRB03KT P6SM SKC
     FM222000 32007KT P6SM SKC=



000
FTUS46 KHNX 221129
TAFFAT
TAF
KFAT 221129Z 2212/2312 VRB03KT P6SM SKC
     FM222300 31007KT P6SM SKC=



000
FTUS46 KHNX 220536
TAFFAT
TAF
KFAT 220536Z 2206/2306 31010KT P6SM SKC
     FM221200 VRB03KT P6SM SKC
     FM222300 30010KT P6SM SKC=



000
FTUS46 KHNX 220536
TAFBFL
TAF
KBFL 220536Z 2206/2306 VRB03KT P6SM SKC
     FM222100 31011KT P6SM SKC=



000
FTUS46 KHNX 220536
TAFMCE
TAF
KMCE 220536Z 2206/2306 31007KT P6SM SKC=



000
FTUS46 KHNX 212320
TAFMCE
TAF
KMCE 212320Z 2200/2224 VRB03KT P6SM SKC
     FM220200 33007KT P6SM SKC
     FM222000 26005KT P6SM SKC=



000
FTUS46 KHNX 212320
TAFFAT
TAF
KFAT 212320Z 2200/2224 33007KT P6SM FEW080
      TEMPO 2202/2206 32013G19KT
     FM221200 VRB03KT P6SM SKC
     FM222200 28008KT P6SM SKC=



000
FTUS46 KHNX 212320
TAFBFL
TAF
KBFL 212320Z 2200/2224 31012KT P6SM SKC
      TEMPO 2200/2202 31012G18KT
     FM220600 VRB03KT P6SM SKC
     FM222100 31010KT P6SM SKC=



000
FTUS46 KHNX 211720
TAFFAT
TAF
KFAT 211720Z 2118/2218 30008KT P6SM SKC
      TEMPO 2202/2206 32013G19KT
     FM221200 VRB03KT P6SM SKC=



000
FTUS46 KHNX 211720
TAFMCE
TAF
KMCE 211720Z 2118/2218 30006KT P6SM SKC=



000
FTUS46 KHNX 211720
TAFBFL
TAF
KBFL 211720Z 2118/2218 30009KT P6SM SKC
     FM220000 34007KT P6SM SKC
     FM220600 VRB03KT P6SM SKC=



000
FTUS46 KHNX 211120
TAFMCE
TAF
KMCE 211120Z 2112/2212 30006KT P6SM FEW150=



000
FTUS46 KHNX 211120
TAFBFL
TAF
KBFL 211120Z 2112/2212 32005KT P6SM FEW150
     FM212200 32010KT P6SM FEW150=



000
FTUS46 KHNX 211120
TAFFAT
TAF
KFAT 211120Z 2112/2212 30008KT P6SM FEW150=



000
FTUS46 KHNX 210539
TAFMCE
TAF
KMCE 210539Z 2106/2206 30006KT P6SM FEW150=



000
FTUS46 KHNX 210539
TAFFAT
TAF
KFAT 210539Z 2106/2206 30008KT P6SM FEW150=



000
FTUS46 KHNX 210539
TAFBFL
TAF
KBFL 210539Z 2106/2206 VRB05KT P6SM FEW150
     FM212200 32010KT P6SM FEW150=



000
FTUS46 KHNX 202320
TAFMCE
TAF
KMCE 202320Z 2100/2124 30006KT P6SM FEW120 BKN200=



000
FTUS46 KHNX 202320
TAFFAT
TAF
KFAT 202320Z 2100/2124 30008KT P6SM FEW120 BKN200=



000
FTUS46 KHNX 202320
TAFBFL
TAF
KBFL 202320Z 2100/2124 32011KT P6SM SCT200=



000
FTUS46 KHNX 201720
TAFBFL
TAF
KBFL 201720Z 2018/2118 32011KT P6SM SCT200=



000
FTUS46 KHNX 201720
TAFFAT
TAF
KFAT 201720Z 2018/2118 30008KT P6SM FEW120 BKN200=



000
FTUS46 KHNX 201720
TAFMCE
TAF
KMCE 201720Z 2018/2118 30006KT P6SM FEW120 BKN200=



000
FTUS46 KHNX 201123
TAFFAT
TAF
KFAT 201123Z 2012/2112 VRB04KT P6SM FEW150
     FM210000 30008KT P6SM SCT150=



000
FTUS46 KHNX 201123
TAFBFL
TAF
KBFL 201123Z 2012/2112 VRB03KT P6SM SKC
     FM202000 31012KT P6SM FEW120
     FM210300 35007KT P6SM SCT120=



000
FTUS46 KHNX 201123
TAFMCE
TAF
KMCE 201123Z 2012/2112 29006KT P6SM SCT150=



    US Dept of Commerce
    National Oceanic and Atmospheric Administration
    National Weather Service
    1325 East West Highway
    Silver Spring, MD 20910
    Page Author: NWS Internet Services Team
Disclaimer
Information Quality
Credits
Glossary
Privacy Policy
Freedom of Information Act (FOIA)
About Us
Career Opportunities